createdAt,value
2019-02-05T00:01:09.932Z,85.25
2019-02-05T00:03:36.979Z,84.70
2019-02-05T00:06:05.041Z,84.16
2019-02-05T00:08:32.457Z,83.88
2019-02-05T00:10:59.599Z,84.65
2019-02-05T00:13:26.660Z,85.01
2019-02-05T00:15:53.753Z,85.33
2019-02-05T00:18:20.788Z,85.26
2019-02-05T00:20:47.841Z,85.68
2019-02-05T00:23:15.320Z,85.61
2019-02-05T00:25:42.377Z,85.00
2019-02-05T00:28:09.932Z,84.69
2019-02-05T00:30:37.587Z,85.76
2019-02-05T00:33:04.946Z,86.56
2019-02-05T00:35:32.327Z,86.45
2019-02-05T00:37:59.674Z,86.59
2019-02-05T00:40:27.212Z,86.79
2019-02-05T00:42:54.585Z,86.49
2019-02-05T00:45:21.938Z,87.05
2019-02-05T00:47:49.793Z,87.59
2019-02-05T00:50:17.242Z,88.28
2019-02-05T00:52:44.567Z,87.84
2019-02-05T00:55:12.154Z,87.64
2019-02-05T00:57:39.513Z,87.72
2019-02-05T01:00:16.078Z,87.98
2019-02-05T01:02:43.742Z,87.73
2019-02-05T01:05:11.404Z,87.54
2019-02-05T01:07:38.802Z,87.28
2019-02-05T01:10:06.418Z,87.07
2019-02-05T01:12:34.183Z,87.60
2019-02-05T01:15:02.172Z,87.39
2019-02-05T01:17:30.033Z,87.53
2019-02-05T01:19:57.073Z,87.46
2019-02-05T01:22:24.262Z,87.69
2019-02-05T01:24:51.309Z,87.22
2019-02-05T01:27:18.422Z,87.28
2019-02-05T01:29:45.479Z,87.06
2019-02-05T01:32:12.910Z,87.47
2019-02-05T01:34:40.609Z,87.49
2019-02-05T01:37:07.944Z,87.48
2019-02-05T01:39:36.207Z,87.55
2019-02-05T01:42:04.688Z,87.05
2019-02-05T01:44:32.551Z,87.23
2019-02-05T01:47:02.001Z,87.60
2019-02-05T01:49:29.716Z,87.95
2019-02-05T01:51:57.073Z,87.65
2019-02-05T01:54:24.432Z,87.39
2019-02-05T01:56:51.460Z,87.77
2019-02-05T01:59:18.510Z,88.45
2019-02-05T02:01:46.284Z,88.77
2019-02-05T02:04:13.353Z,88.89
2019-02-05T02:06:40.685Z,89.02
2019-02-05T02:09:09.475Z,88.69
2019-02-05T02:11:37.069Z,88.30
2019-02-05T02:14:04.692Z,88.80
2019-02-05T02:16:31.808Z,89.41
2019-02-05T02:18:59.884Z,89.26
2019-02-05T02:21:28.723Z,89.03
2019-02-05T02:23:56.061Z,89.26
2019-02-05T02:26:24.027Z,88.83
2019-02-05T02:28:51.490Z,89.50
2019-02-05T02:31:19.274Z,89.43
2019-02-05T02:33:46.318Z,89.79
2019-02-05T02:36:14.062Z,89.51
2019-02-05T02:38:41.114Z,89.80
2019-02-05T02:41:08.227Z,89.55
2019-02-05T02:43:36.250Z,89.28
2019-02-05T02:46:03.869Z,89.21
2019-02-05T02:48:31.145Z,89.29
2019-02-05T02:50:58.192Z,89.29
2019-02-05T02:53:25.849Z,89.20
2019-02-05T02:55:53.612Z,89.43
2019-02-05T02:58:20.638Z,89.66
2019-02-05T03:00:48.081Z,89.81
2019-02-05T03:03:15.443Z,89.36
2019-02-05T03:05:44.688Z,89.72
2019-02-05T03:08:12.126Z,88.74
2019-02-05T03:10:39.333Z,88.48
2019-02-05T03:13:13.251Z,88.37
2019-02-05T03:15:41.443Z,88.43
2019-02-05T03:18:09.225Z,88.58
2019-02-05T03:20:37.785Z,88.88
2019-02-05T03:23:05.971Z,89.22
2019-02-05T03:25:33.343Z,89.23
2019-02-05T03:28:02.234Z,88.74
2019-02-05T03:30:30.834Z,89.40
2019-02-05T03:32:57.972Z,89.64
2019-02-05T03:35:25.012Z,90.01
2019-02-05T03:37:52.597Z,90.21
2019-02-05T03:40:58.306Z,89.89
2019-02-05T03:43:27.316Z,89.92
2019-02-05T03:45:55.481Z,89.24
2019-02-05T03:48:24.476Z,89.87
2019-02-05T03:50:56.644Z,89.62
2019-02-05T03:53:24.713Z,89.71
2019-02-05T03:56:08.560Z,89.62
2019-02-05T03:59:26.805Z,89.61
2019-02-05T04:02:36.244Z,89.06
2019-02-05T04:05:40.062Z,88.75
2019-02-05T04:08:37.725Z,89.09
2019-02-05T04:11:51.437Z,89.45
2019-02-05T04:15:12.629Z,88.67
2019-02-05T04:17:59.584Z,89.19
2019-02-05T04:21:13.860Z,88.89
2019-02-05T04:24:08.010Z,88.97
2019-02-05T04:26:58.449Z,89.19
2019-02-05T04:29:52.758Z,89.41
2019-02-05T04:32:37.059Z,88.95
2019-02-05T04:35:51.285Z,89.63
2019-02-05T04:39:11.807Z,89.37
2019-02-05T04:42:20.336Z,89.16
2019-02-05T04:45:33.767Z,89.98
2019-02-05T04:48:36.432Z,89.69
2019-02-05T04:51:41.794Z,89.95
2019-02-05T04:54:26.762Z,90.39
2019-02-05T04:57:20.006Z,90.35
2019-02-05T05:00:19.638Z,90.52
2019-02-05T05:03:33.781Z,90.21
2019-02-05T05:06:24.694Z,90.21
2019-02-05T05:09:18.892Z,90.91
2019-02-05T05:11:46.653Z,91.37
2019-02-05T05:14:15.542Z,91.23
2019-02-05T05:16:43.091Z,91.45
2019-02-05T05:19:10.162Z,90.98
2019-02-05T05:21:38.022Z,90.51
2019-02-05T05:24:05.477Z,90.68
2019-02-05T05:26:32.627Z,91.24
2019-02-05T05:28:59.704Z,91.78
2019-02-05T05:31:28.256Z,91.63
2019-02-05T05:33:56.217Z,91.53
2019-02-05T05:36:23.379Z,92.03
2019-02-05T05:38:52.926Z,92.68
2019-02-05T05:41:21.451Z,92.08
2019-02-05T05:43:48.802Z,92.50
2019-02-05T05:46:15.858Z,92.50
2019-02-05T05:48:43.628Z,92.24
2019-02-05T05:51:12.401Z,91.91
2019-02-05T05:53:40.063Z,92.15
2019-02-05T05:56:07.130Z,92.30
2019-02-05T05:58:34.610Z,91.90
2019-02-05T06:01:02.046Z,92.11
2019-02-05T06:03:29.449Z,92.14
2019-02-05T06:05:56.489Z,91.56
2019-02-05T06:08:26.073Z,92.27
2019-02-05T06:10:53.391Z,92.90
2019-02-05T06:13:20.682Z,92.24
2019-02-05T06:15:49.528Z,92.38
2019-02-05T06:18:17.798Z,91.94
2019-02-05T06:20:45.768Z,92.05
2019-02-05T06:23:13.536Z,92.18
2019-02-05T06:25:40.898Z,91.94
2019-02-05T06:28:08.080Z,92.40
2019-02-05T06:30:35.395Z,92.12
2019-02-05T06:33:02.745Z,92.65
2019-02-05T06:35:31.649Z,92.83
2019-02-05T06:37:58.989Z,92.29
2019-02-05T06:40:27.782Z,92.26
2019-02-05T06:42:55.189Z,92.32
2019-02-05T06:45:23.923Z,92.17
2019-02-05T06:47:52.404Z,92.08
2019-02-05T06:50:19.757Z,91.56
2019-02-05T06:52:47.168Z,91.55
2019-02-05T06:55:17.230Z,91.51
2019-02-05T06:57:46.024Z,91.75
2019-02-05T07:00:19.654Z,91.74
2019-02-05T07:02:48.207Z,91.41
2019-02-05T07:05:15.345Z,91.40
2019-02-05T07:07:43.409Z,92.05
2019-02-05T07:10:13.186Z,91.72
2019-02-05T07:12:40.221Z,91.03
2019-02-05T07:15:08.150Z,91.83
2019-02-05T07:17:36.322Z,91.02
2019-02-05T07:20:04.252Z,90.85
2019-02-05T07:22:31.645Z,90.62
2019-02-05T07:24:58.886Z,90.17
2019-02-05T07:27:25.894Z,90.41
2019-02-05T07:29:53.315Z,90.85
2019-02-05T07:32:20.371Z,90.57
2019-02-05T07:34:47.697Z,90.56
2019-02-05T07:37:14.718Z,91.59
2019-02-05T07:39:43.127Z,90.83
2019-02-05T07:42:10.156Z,90.45
2019-02-05T07:44:40.151Z,91.01
2019-02-05T07:47:07.393Z,90.84
2019-02-05T07:49:34.835Z,91.07
2019-02-05T07:52:02.467Z,91.12
2019-02-05T07:54:30.426Z,90.96
2019-02-05T07:56:57.695Z,91.19
2019-02-05T07:59:24.717Z,91.46
2019-02-05T08:01:51.878Z,91.33
2019-02-05T08:04:19.543Z,91.22
2019-02-05T08:06:47.407Z,91.01
2019-02-05T08:09:14.519Z,91.00
2019-02-05T08:11:41.932Z,90.36
2019-02-05T08:14:09.584Z,90.30
2019-02-05T08:16:36.723Z,89.95
2019-02-05T08:19:04.135Z,89.73
2019-02-05T08:21:31.648Z,89.55
2019-02-05T08:23:58.677Z,89.78
2019-02-05T08:26:26.446Z,89.62
2019-02-05T08:28:53.797Z,89.14
2019-02-05T08:31:21.081Z,88.84
2019-02-05T08:33:48.316Z,88.54
2019-02-05T08:36:15.359Z,88.41
2019-02-05T08:38:42.749Z,88.53
2019-02-05T08:41:09.819Z,88.60
2019-02-05T08:43:37.227Z,88.69
2019-02-05T08:46:04.993Z,88.82
2019-02-05T08:48:32.132Z,89.24
2019-02-05T08:50:59.214Z,88.14
2019-02-05T08:53:27.271Z,88.15
2019-02-05T08:55:54.321Z,87.72
2019-02-05T08:58:30.536Z,88.09
2019-02-05T09:00:50.450Z,87.15
2019-02-05T09:03:18.671Z,87.38
2019-02-05T09:05:45.721Z,88.18
2019-02-05T09:08:13.672Z,87.89
2019-02-05T09:10:41.765Z,87.32
2019-02-05T09:13:09.454Z,86.54
2019-02-05T09:15:36.916Z,86.32
2019-02-05T09:18:05.601Z,85.71
2019-02-05T09:20:34.084Z,86.22
2019-02-05T09:23:01.435Z,86.72
2019-02-05T09:25:29.195Z,86.89
2019-02-05T09:27:56.260Z,87.04
2019-02-05T09:30:25.625Z,87.71
2019-02-05T09:32:54.612Z,88.03
2019-02-05T09:35:21.671Z,88.63
2019-02-05T09:37:51.086Z,88.89
2019-02-05T09:40:24.069Z,88.59
2019-02-05T09:42:51.128Z,87.43
2019-02-05T09:45:18.690Z,86.12
2019-02-05T09:47:46.138Z,85.98
2019-02-05T09:50:13.801Z,86.30
2019-02-05T09:52:40.862Z,86.53
2019-02-05T09:55:10.632Z,86.60
2019-02-05T09:57:38.322Z,87.00
2019-02-05T10:00:11.037Z,86.70
2019-02-05T10:02:38.764Z,86.48
2019-02-05T10:05:07.655Z,86.59
2019-02-05T10:07:35.314Z,86.51
2019-02-05T10:10:03.089Z,87.50
2019-02-05T10:12:31.152Z,87.59
2019-02-05T10:14:59.631Z,86.92
2019-02-05T10:17:27.001Z,86.87
2019-02-05T10:19:54.019Z,86.51
2019-02-05T10:22:21.388Z,86.68
2019-02-05T10:24:49.918Z,86.77
2019-02-05T10:27:17.942Z,86.27
2019-02-05T10:29:56.537Z,85.31
2019-02-05T10:32:15.555Z,85.07
2019-02-05T10:34:43.186Z,84.47
2019-02-05T10:37:10.540Z,84.08
2019-02-05T10:39:37.887Z,83.59
2019-02-05T10:42:05.559Z,83.43
2019-02-05T10:44:33.508Z,84.86
2019-02-05T10:47:00.920Z,83.71
2019-02-05T10:49:28.225Z,83.30
2019-02-05T10:51:55.691Z,83.28
2019-02-05T10:54:23.350Z,82.38
2019-02-05T10:56:50.847Z,81.87
2019-02-05T10:59:18.273Z,82.23
2019-02-05T11:01:45.621Z,83.00
2019-02-05T11:04:13.064Z,82.55
2019-02-05T11:06:40.203Z,82.46
2019-02-05T11:09:09.621Z,82.11
2019-02-05T11:11:38.030Z,82.84
2019-02-05T11:14:05.554Z,81.92
2019-02-05T11:16:32.631Z,83.01
2019-02-05T11:18:59.963Z,83.66
2019-02-05T11:21:27.341Z,83.71
2019-02-05T11:23:55.288Z,84.46
2019-02-05T11:26:22.307Z,84.71
2019-02-05T11:28:49.342Z,85.03
2019-02-05T11:31:16.774Z,84.24
2019-02-05T11:33:43.811Z,85.00
2019-02-05T11:36:11.155Z,85.30
2019-02-05T11:38:38.211Z,84.98
2019-02-05T11:41:05.593Z,84.58
2019-02-05T11:43:32.910Z,83.67
2019-02-05T11:46:00.771Z,82.70
2019-02-05T11:48:27.859Z,83.31
2019-02-05T11:50:55.260Z,83.72
2019-02-05T11:53:22.376Z,83.26
2019-02-05T11:55:49.766Z,83.98
2019-02-05T11:58:18.452Z,83.91
2019-02-05T12:01:03.315Z,83.88
2019-02-05T12:03:30.367Z,82.86
2019-02-05T12:05:57.386Z,82.17
2019-02-05T12:08:24.425Z,82.06
2019-02-05T12:10:51.462Z,81.77
2019-02-05T12:13:19.541Z,82.52
2019-02-05T12:15:47.898Z,83.73
2019-02-05T12:18:20.944Z,83.88
2019-02-05T12:20:49.009Z,83.65
2019-02-05T12:23:16.075Z,82.95
2019-02-05T12:25:44.741Z,84.70
2019-02-05T12:28:12.404Z,84.26
2019-02-05T12:30:45.028Z,83.79
2019-02-05T12:33:09.353Z,83.72
2019-02-05T12:35:37.231Z,84.11
2019-02-05T12:38:06.530Z,84.07
2019-02-05T12:40:34.051Z,83.70
2019-02-05T12:43:01.092Z,83.67
2019-02-05T12:45:29.310Z,84.08
2019-02-05T12:47:56.711Z,83.95
2019-02-05T12:50:26.569Z,83.86
2019-02-05T12:52:55.466Z,83.80
2019-02-05T12:55:23.830Z,83.45
2019-02-05T12:57:50.879Z,83.11
2019-02-05T13:00:24.398Z,83.34
2019-02-05T13:02:54.422Z,83.05
2019-02-05T13:05:20.664Z,83.15
2019-02-05T13:07:47.755Z,83.67
2019-02-05T13:10:17.355Z,83.33
2019-02-05T13:12:44.380Z,84.52
2019-02-05T13:15:11.551Z,83.21
2019-02-05T13:17:42.926Z,82.85
2019-02-05T13:20:14.037Z,83.23
2019-02-05T13:22:41.460Z,83.27
2019-02-05T13:25:12.959Z,83.32
2019-02-05T13:27:40.017Z,83.70
2019-02-05T13:30:08.282Z,83.81
2019-02-05T13:32:35.302Z,82.55
2019-02-05T13:35:02.671Z,82.30
2019-02-05T13:37:31.206Z,82.36
2019-02-05T13:39:58.247Z,82.16
2019-02-05T13:42:25.906Z,82.35
2019-02-05T13:44:52.942Z,82.39
2019-02-05T13:47:21.012Z,80.89
2019-02-05T13:49:48.475Z,80.78
2019-02-05T13:52:16.488Z,81.14
2019-02-05T13:54:43.517Z,81.01
2019-02-05T13:57:11.062Z,81.01
2019-02-05T13:59:39.580Z,82.76
2019-02-05T14:02:07.202Z,82.73
2019-02-05T14:04:34.255Z,82.37
2019-02-05T14:07:01.279Z,81.94
2019-02-05T14:09:29.670Z,82.34
2019-02-05T14:11:57.069Z,81.45
2019-02-05T14:14:25.728Z,82.12
2019-02-05T14:16:53.387Z,82.32
2019-02-05T14:19:21.036Z,81.37
2019-02-05T14:21:48.382Z,82.18
2019-02-05T14:24:15.856Z,83.05
2019-02-05T14:26:43.554Z,82.62
2019-02-05T14:29:12.290Z,83.18
2019-02-05T14:31:39.654Z,84.61
2019-02-05T14:34:06.706Z,83.73
2019-02-05T14:36:34.358Z,83.95
2019-02-05T14:39:01.493Z,84.11
2019-02-05T14:41:30.703Z,83.81
2019-02-05T14:43:58.090Z,83.80
2019-02-05T14:46:25.369Z,84.40
2019-02-05T14:48:52.445Z,84.89
2019-02-05T14:51:19.463Z,84.26
2019-02-05T14:53:46.863Z,84.08
2019-02-05T14:56:13.903Z,84.62
2019-02-05T14:58:41.170Z,83.97
2019-02-05T15:01:08.515Z,84.26
2019-02-05T15:03:35.595Z,84.38
2019-02-05T15:06:03.020Z,84.01
2019-02-05T15:08:30.802Z,83.37
2019-02-05T15:10:59.793Z,84.46
2019-02-05T15:13:26.815Z,84.46
2019-02-05T15:15:53.846Z,84.43
2019-02-05T15:18:23.229Z,84.80
2019-02-05T15:20:50.483Z,85.43
2019-02-05T15:23:17.503Z,86.00
2019-02-05T15:25:44.825Z,85.68
2019-02-05T15:28:12.586Z,85.92
2019-02-05T15:30:42.129Z,85.48
2019-02-05T15:33:34.942Z,85.31
2019-02-05T15:36:08.031Z,85.79
2019-02-05T15:38:35.386Z,85.04
2019-02-05T15:41:03.990Z,86.17
2019-02-05T15:43:31.321Z,85.44
2019-02-05T15:45:58.359Z,84.72
2019-02-05T15:48:25.567Z,85.84
2019-02-05T15:50:53.028Z,85.48
2019-02-05T15:53:20.463Z,86.35
2019-02-05T15:55:47.798Z,85.62
2019-02-05T15:58:14.850Z,86.50
2019-02-05T16:00:42.317Z,86.81
2019-02-05T16:03:09.346Z,87.57
2019-02-05T16:05:36.440Z,87.22
2019-02-05T16:08:03.935Z,87.29
2019-02-05T16:10:31.055Z,88.21
2019-02-05T16:12:58.670Z,87.99
2019-02-05T16:15:26.379Z,87.98
2019-02-05T16:17:55.550Z,89.52
2019-02-05T16:20:22.867Z,89.86
2019-02-05T16:22:50.515Z,89.69
2019-02-05T16:25:19.219Z,89.36
2019-02-05T16:27:47.196Z,89.08
2019-02-05T16:30:16.796Z,88.87
2019-02-05T16:32:44.150Z,89.34
2019-02-05T16:35:12.321Z,89.24
2019-02-05T16:37:39.688Z,89.51
2019-02-05T16:40:11.074Z,89.25
2019-02-05T16:42:38.484Z,89.00
2019-02-05T16:45:07.847Z,88.93
2019-02-05T16:47:35.006Z,88.73
2019-02-05T16:50:02.164Z,88.54
2019-02-05T16:52:29.749Z,88.79
2019-02-05T16:54:57.396Z,89.84
2019-02-05T16:57:25.068Z,90.10
2019-02-05T16:59:52.421Z,90.02
2019-02-05T17:02:28.688Z,90.01
2019-02-05T17:04:49.075Z,90.46
2019-02-05T17:07:17.149Z,90.32
2019-02-05T17:09:45.830Z,90.16
2019-02-05T17:12:12.885Z,89.91
2019-02-05T17:14:40.845Z,89.84
2019-02-05T17:17:07.910Z,89.52
2019-02-05T17:19:35.756Z,89.65
2019-02-05T17:22:03.093Z,89.45
2019-02-05T17:24:30.671Z,88.86
2019-02-05T17:26:59.153Z,89.33
2019-02-05T17:29:26.503Z,90.17
2019-02-05T17:31:53.567Z,90.13
2019-02-05T17:34:20.926Z,90.00
2019-02-05T17:36:47.956Z,89.85
2019-02-05T17:39:16.040Z,89.47
2019-02-05T17:41:43.397Z,89.53
2019-02-05T17:44:10.424Z,88.96
2019-02-05T17:46:37.843Z,88.50
2019-02-05T17:49:04.923Z,88.91
2019-02-05T17:51:32.793Z,89.42
2019-02-05T17:54:01.084Z,89.96
2019-02-05T17:56:28.635Z,89.71
2019-02-05T17:58:55.677Z,90.33
2019-02-05T18:01:22.727Z,90.97
2019-02-05T18:03:49.747Z,90.09
2019-02-05T18:06:16.843Z,90.61
2019-02-05T18:08:44.846Z,89.96
2019-02-05T18:11:12.149Z,90.45
2019-02-05T18:13:39.900Z,90.49
2019-02-05T18:16:18.016Z,90.17
2019-02-05T18:18:45.370Z,90.16
2019-02-05T18:21:12.403Z,90.12
2019-02-05T18:23:40.498Z,90.86
2019-02-05T18:26:07.842Z,90.76
2019-02-05T18:28:35.271Z,90.53
2019-02-05T18:31:02.652Z,91.29
2019-02-05T18:33:29.769Z,91.19
2019-02-05T18:35:56.781Z,90.90
2019-02-05T18:38:23.827Z,92.06
2019-02-05T18:40:50.895Z,93.25
2019-02-05T18:43:18.319Z,93.26
2019-02-05T18:45:45.361Z,93.02
2019-02-05T18:48:12.409Z,92.98
2019-02-05T18:50:40.489Z,92.99
2019-02-05T18:53:07.533Z,92.63
2019-02-05T18:55:35.025Z,92.58
2019-02-05T18:58:09.474Z,92.70
2019-02-05T19:00:33.341Z,93.73
2019-02-05T19:03:00.718Z,93.10
2019-02-05T19:05:27.934Z,93.27
2019-02-05T19:07:57.156Z,93.17
2019-02-05T19:10:26.178Z,93.22
2019-02-05T19:12:53.204Z,94.51
2019-02-05T19:15:26.201Z,95.10
2019-02-05T19:17:53.224Z,94.42
2019-02-05T19:20:22.524Z,93.68
2019-02-05T19:22:49.599Z,94.31
2019-02-05T19:25:42.478Z,94.65
2019-02-05T19:28:11.563Z,94.71
2019-02-05T19:30:41.387Z,95.51
2019-02-05T19:33:08.414Z,95.25
2019-02-05T19:35:35.486Z,95.17
2019-02-05T19:38:02.531Z,94.87
2019-02-05T19:40:30.261Z,94.13
2019-02-05T19:42:57.607Z,94.71
2019-02-05T19:45:49.519Z,95.89
2019-02-05T19:48:27.327Z,95.52
2019-02-05T19:50:54.648Z,95.20
2019-02-05T19:53:21.955Z,95.20
2019-02-05T19:55:49.433Z,95.55
2019-02-05T19:58:16.458Z,96.68
2019-02-05T20:00:43.470Z,96.43
2019-02-05T20:03:11.202Z,96.33
2019-02-05T20:05:39.263Z,96.00
2019-02-05T20:08:06.287Z,95.67
2019-02-05T20:10:33.667Z,95.61
2019-02-05T20:13:00.796Z,95.04
2019-02-05T20:15:27.827Z,95.39
2019-02-05T20:17:54.875Z,94.90
2019-02-05T20:20:21.926Z,95.51
2019-02-05T20:22:49.249Z,95.18
2019-02-05T20:25:16.303Z,93.75
2019-02-05T20:27:43.348Z,94.37
2019-02-05T20:30:13.635Z,94.64
2019-02-05T20:32:41.359Z,94.83
2019-02-05T20:35:08.564Z,94.57
2019-02-05T20:37:35.960Z,94.34
2019-02-05T20:40:06.968Z,94.71
2019-02-05T20:42:34.414Z,94.84
2019-02-05T20:45:02.086Z,94.94
2019-02-05T20:47:29.244Z,94.83
2019-02-05T20:49:56.348Z,94.74
2019-02-05T20:52:24.285Z,95.09
2019-02-05T20:54:51.392Z,94.84
2019-02-05T20:57:18.495Z,94.89
2019-02-05T20:59:45.971Z,94.98
2019-02-05T21:02:15.478Z,94.49
2019-02-05T21:04:48.402Z,94.89
2019-02-05T21:07:11.517Z,94.67
2019-02-05T21:09:42.304Z,94.63
2019-02-05T21:12:09.775Z,96.93
2019-02-05T21:14:37.232Z,96.86
2019-02-05T21:17:04.303Z,96.60
2019-02-05T21:19:31.766Z,96.89
2019-02-05T21:22:00.396Z,97.02
2019-02-05T21:24:27.456Z,96.81
2019-02-05T21:26:54.547Z,97.15
2019-02-05T21:29:23.976Z,97.72
2019-02-05T21:31:51.018Z,97.15
2019-02-05T21:34:18.067Z,97.32
2019-02-05T21:36:45.515Z,96.28
2019-02-05T21:39:12.836Z,95.97
2019-02-05T21:41:40.586Z,96.26
2019-02-05T21:44:07.636Z,95.65
2019-02-05T21:46:35.913Z,95.35
2019-02-05T21:49:03.572Z,94.80
2019-02-05T21:51:40.205Z,94.21
2019-02-05T21:54:00.319Z,93.39
2019-02-05T21:56:27.679Z,93.49
2019-02-05T21:58:55.060Z,93.55
2019-02-05T22:01:22.494Z,93.48
2019-02-05T22:03:50.154Z,92.26
2019-02-05T22:06:17.193Z,91.73
2019-02-05T22:08:44.841Z,91.08
2019-02-05T22:11:12.317Z,91.32
2019-02-05T22:13:39.360Z,91.78
2019-02-05T22:16:06.870Z,90.77
2019-02-05T22:18:34.492Z,90.60
2019-02-05T22:21:02.579Z,89.61
2019-02-05T22:23:31.378Z,89.02
2019-02-05T22:25:58.418Z,88.01
2019-02-05T22:28:25.746Z,89.21
2019-02-05T22:30:53.214Z,89.01
2019-02-05T22:33:22.001Z,89.83
2019-02-05T22:35:49.039Z,89.35
2019-02-05T22:38:16.430Z,88.84
2019-02-05T22:40:43.466Z,87.90
2019-02-05T22:43:10.710Z,88.13
2019-02-05T22:45:41.002Z,88.39
2019-02-05T22:48:07.869Z,87.97
2019-02-05T22:50:34.978Z,87.54
2019-02-05T22:53:02.307Z,87.26
2019-02-05T22:55:29.386Z,87.35
2019-02-05T22:57:56.441Z,87.80
2019-02-05T23:00:39.909Z,89.64
2019-02-05T23:03:07.893Z,89.76
2019-02-05T23:06:15.716Z,90.41
2019-02-05T23:08:42.764Z,89.91
2019-02-05T23:12:07.337Z,90.16
2019-02-05T23:14:34.381Z,89.22
2019-02-05T23:17:02.319Z,88.71
2019-02-05T23:19:29.388Z,88.94
2019-02-05T23:21:56.749Z,88.35
2019-02-05T23:24:23.889Z,88.53
2019-02-05T23:26:51.482Z,89.05
2019-02-05T23:29:19.603Z,87.90
2019-02-05T23:31:46.957Z,87.80
2019-02-05T23:34:13.997Z,88.12
2019-02-05T23:36:41.358Z,87.52
2019-02-05T23:39:08.902Z,87.52
2019-02-05T23:41:36.850Z,87.09
2019-02-05T23:44:05.161Z,87.06
2019-02-05T23:46:32.520Z,87.58
2019-02-05T23:49:00.484Z,88.31
2019-02-05T23:51:27.838Z,86.99
2019-02-05T23:53:55.910Z,87.31
2019-02-05T23:56:25.834Z,86.78
2019-02-05T23:58:54.118Z,86.50
